createdAt,value
2022-07-26T00:01:14.128Z,12.00
2022-07-26T00:03:40.589Z,11.32
2022-07-26T00:06:07.087Z,10.73
2022-07-26T00:08:33.574Z,12.27
2022-07-26T00:11:00.214Z,10.55
2022-07-26T00:13:34.659Z,11.13
2022-07-26T00:16:01.111Z,4.73
2022-07-26T00:18:27.559Z,10.02
2022-07-26T00:20:55.571Z,8.35
2022-07-26T00:23:22.175Z,9.65
2022-07-26T00:25:48.621Z,9.63
2022-07-26T00:28:15.103Z,8.95
2022-07-26T00:30:41.802Z,5.60
2022-07-26T00:33:08.280Z,7.60
2022-07-26T00:35:34.935Z,12.88
2022-07-26T00:38:01.416Z,11.93
2022-07-26T00:40:27.858Z,10.60
2022-07-26T00:42:54.774Z,10.88
2022-07-26T00:45:21.238Z,7.32
2022-07-26T00:47:47.612Z,8.32
2022-07-26T00:50:16.886Z,14.48
2022-07-26T00:52:44.680Z,9.27
2022-07-26T00:55:11.971Z,7.10
2022-07-26T00:57:38.778Z,7.22
2022-07-26T01:00:08.273Z,10.88
2022-07-26T01:02:34.995Z,8.73
2022-07-26T01:05:01.800Z,7.43
2022-07-26T01:07:29.124Z,8.10
2022-07-26T01:09:55.676Z,5.93
2022-07-26T01:12:22.165Z,7.95
2022-07-26T01:14:48.556Z,14.40
2022-07-26T01:17:15.405Z,6.35
2022-07-26T01:19:42.331Z,7.15
2022-07-26T01:22:13.920Z,9.77
2022-07-26T01:24:40.952Z,7.68
2022-07-26T01:27:07.947Z,7.10
2022-07-26T01:29:35.918Z,10.05
2022-07-26T01:34:30.544Z,7.82
2022-07-26T01:36:57.335Z,6.78
2022-07-26T01:39:23.973Z,7.13
2022-07-26T01:41:50.386Z,9.27
2022-07-26T01:44:16.780Z,13.07
2022-07-26T01:46:43.195Z,11.10
2022-07-26T01:49:09.753Z,8.57
2022-07-26T01:51:36.416Z,9.35
2022-07-26T01:54:02.886Z,13.82
2022-07-26T01:56:29.325Z,9.20
2022-07-26T01:58:55.708Z,9.60
2022-07-26T02:01:38.812Z,8.32
2022-07-26T02:04:06.738Z,7.68
2022-07-26T02:06:34.422Z,12.80
2022-07-26T02:09:00.967Z,13.00
2022-07-26T02:11:28.540Z,10.97
2022-07-26T02:13:54.918Z,10.52
2022-07-26T02:16:21.445Z,13.00
2022-07-26T02:18:47.948Z,12.82
2022-07-26T02:21:14.318Z,13.15
2022-07-26T02:23:41.433Z,10.95
2022-07-26T02:26:08.298Z,12.40
2022-07-26T02:28:34.644Z,12.88
2022-07-26T02:31:01.133Z,9.80
2022-07-26T02:33:27.838Z,8.32
2022-07-26T02:35:54.206Z,9.55
2022-07-26T02:38:20.619Z,9.55
2022-07-26T02:40:50.448Z,7.68
2022-07-26T02:43:17.095Z,7.25
2022-07-26T02:45:43.629Z,7.97
2022-07-26T02:48:10.415Z,7.47
2022-07-26T02:50:36.963Z,9.30
2022-07-26T02:53:03.349Z,10.18
2022-07-26T02:55:29.932Z,8.80
2022-07-26T02:57:56.467Z,9.75
2022-07-26T03:00:25.914Z,10.95
2022-07-26T03:02:53.271Z,6.45
2022-07-26T03:05:21.113Z,7.15
2022-07-26T03:07:47.793Z,8.07
2022-07-26T03:10:14.691Z,9.02
2022-07-26T03:12:59.305Z,8.20
2022-07-26T03:15:25.973Z,10.38
2022-07-26T03:17:52.365Z,11.30
2022-07-26T03:20:18.748Z,9.45
2022-07-26T03:22:45.142Z,7.72
2022-07-26T03:25:11.588Z,8.60
2022-07-26T03:27:37.998Z,6.57
2022-07-26T03:30:05.912Z,9.02
2022-07-26T03:32:32.351Z,9.20
2022-07-26T03:34:58.947Z,8.32
2022-07-26T03:37:25.588Z,7.90
2022-07-26T03:40:12.048Z,9.45
2022-07-26T03:42:38.576Z,10.52
2022-07-26T03:45:05.486Z,7.38
2022-07-26T03:47:31.867Z,9.48
2022-07-26T03:49:58.281Z,11.32
2022-07-26T03:52:24.641Z,10.90
2022-07-26T03:54:51.011Z,16.13
2022-07-26T03:57:17.640Z,10.20
2022-07-26T03:59:43.983Z,10.40
2022-07-26T04:02:10.386Z,13.15
2022-07-26T04:04:36.815Z,9.45
2022-07-26T04:07:03.919Z,12.70
2022-07-26T04:09:30.900Z,11.80
2022-07-26T04:11:57.323Z,8.52
2022-07-26T04:14:23.758Z,7.28
2022-07-26T04:16:50.317Z,12.82
2022-07-26T04:19:16.822Z,10.38
2022-07-26T04:21:43.272Z,10.05
2022-07-26T04:24:10.267Z,13.02
2022-07-26T04:26:37.026Z,14.50
2022-07-26T04:29:03.555Z,11.52
2022-07-26T04:31:36.254Z,12.17
2022-07-26T04:34:03.026Z,11.30
2022-07-26T04:36:29.405Z,13.48
2022-07-26T04:38:55.748Z,11.13
2022-07-26T04:41:22.216Z,13.70
2022-07-26T04:43:48.604Z,9.30
2022-07-26T04:46:15.142Z,10.68
2022-07-26T04:48:41.721Z,14.15
2022-07-26T04:51:08.130Z,13.27
2022-07-26T04:53:34.556Z,18.67
2022-07-26T04:56:01.286Z,12.10
2022-07-26T04:58:27.648Z,12.25
2022-07-26T05:01:09.603Z,16.13
2022-07-26T05:03:37.006Z,12.20
2022-07-26T05:06:03.481Z,10.00
2022-07-26T05:08:29.852Z,10.18
2022-07-26T05:10:56.274Z,8.30
2022-07-26T05:13:29.942Z,14.07
2022-07-26T05:15:57.233Z,17.75
2022-07-26T05:18:23.594Z,10.65
2022-07-26T05:20:51.479Z,9.20
2022-07-26T05:23:18.166Z,12.02
2022-07-26T05:25:44.566Z,11.77
2022-07-26T05:28:11.646Z,12.57
2022-07-26T05:30:38.268Z,9.05
2022-07-26T05:33:04.711Z,11.02
2022-07-26T05:35:31.087Z,10.95
2022-07-26T05:37:57.538Z,9.73
2022-07-26T05:40:24.007Z,12.90
2022-07-26T05:42:50.364Z,8.65
2022-07-26T05:45:17.218Z,10.70
2022-07-26T05:47:43.611Z,8.93
2022-07-26T05:50:10.236Z,9.48
2022-07-26T05:52:36.777Z,9.55
2022-07-26T05:55:03.369Z,9.82
2022-07-26T05:57:29.789Z,7.97
2022-07-26T05:59:56.479Z,11.45
2022-07-26T06:02:22.967Z,11.75
2022-07-26T06:04:49.575Z,8.77
2022-07-26T06:07:16.425Z,8.30
2022-07-26T06:09:52.076Z,13.68
2022-07-26T06:12:18.858Z,6.63
2022-07-26T06:14:45.554Z,7.65
2022-07-26T06:17:12.002Z,11.55
2022-07-26T06:19:38.531Z,11.65
2022-07-26T06:22:05.175Z,6.32
2022-07-26T06:24:34.595Z,5.88
2022-07-26T06:27:05.272Z,6.03
2022-07-26T06:29:33.031Z,7.50
2022-07-26T06:31:59.563Z,4.63
2022-07-26T06:34:26.027Z,9.63
2022-07-26T06:36:55.506Z,7.07
2022-07-26T06:39:21.863Z,5.68
2022-07-26T06:41:48.470Z,4.70
2022-07-26T06:44:15.225Z,5.88
2022-07-26T06:46:41.603Z,7.57
2022-07-26T06:49:08.054Z,6.32
2022-07-26T06:51:34.569Z,5.45
2022-07-26T06:54:01.161Z,5.22
2022-07-26T06:56:27.868Z,6.85
2022-07-26T06:58:55.264Z,7.32
2022-07-26T07:01:58.150Z,7.17
2022-07-26T07:04:09.146Z,6.13
2022-07-26T07:06:35.886Z,5.80
2022-07-26T07:09:02.264Z,7.97
2022-07-26T07:11:28.629Z,4.32
2022-07-26T07:13:55.188Z,5.70
2022-07-26T07:16:21.638Z,5.40
2022-07-26T07:18:49.091Z,6.90
2022-07-26T07:21:15.443Z,6.75
2022-07-26T07:23:41.789Z,9.90
2022-07-26T07:26:08.604Z,6.15
2022-07-26T07:28:38.340Z,4.32
2022-07-26T07:31:05.947Z,3.83
2022-07-26T07:33:43.895Z,4.40
2022-07-26T07:36:18.762Z,4.63
2022-07-26T07:38:45.818Z,3.30
2022-07-26T07:41:12.184Z,4.35
2022-07-26T07:43:38.534Z,4.38
2022-07-26T07:46:05.197Z,5.90
2022-07-26T07:48:31.724Z,4.38
2022-07-26T07:50:58.569Z,4.53
2022-07-26T07:53:25.099Z,4.50
2022-07-26T07:55:52.748Z,4.93
2022-07-26T07:58:21.892Z,5.65
2022-07-26T08:00:48.616Z,6.70
2022-07-26T08:03:18.738Z,2.47
2022-07-26T08:05:46.904Z,6.95
2022-07-26T08:08:16.944Z,3.35
2022-07-26T08:10:43.672Z,5.40
2022-07-26T08:13:18.676Z,6.03
2022-07-26T08:15:47.991Z,4.55
2022-07-26T08:18:15.728Z,4.80
2022-07-26T08:20:43.269Z,7.47
2022-07-26T08:23:10.088Z,5.50
2022-07-26T08:25:39.984Z,5.22
2022-07-26T08:28:30.718Z,3.30
2022-07-26T08:30:59.037Z,3.45
2022-07-26T08:33:26.314Z,3.03
2022-07-26T08:35:57.044Z,6.32
2022-07-26T08:38:24.955Z,3.30
2022-07-26T08:40:51.572Z,3.60
2022-07-26T08:43:18.004Z,3.63
2022-07-26T08:45:45.633Z,3.38
2022-07-26T08:48:17.683Z,2.38
2022-07-26T08:50:45.056Z,2.15
2022-07-26T08:53:13.236Z,1.88
2022-07-26T08:58:26.426Z,1.80
2022-07-26T09:01:12.874Z,2.38
2022-07-26T09:03:40.286Z,2.72
2022-07-26T09:06:18.296Z,3.92
2022-07-26T09:08:47.429Z,1.88
2022-07-26T09:11:33.213Z,2.20
2022-07-26T09:14:03.129Z,3.05
2022-07-26T09:16:29.910Z,3.33
2022-07-26T09:19:18.892Z,2.33
2022-07-26T09:21:46.505Z,3.33
2022-07-26T09:24:13.122Z,3.85
2022-07-26T09:26:39.554Z,2.35
2022-07-26T09:29:11.500Z,4.68
2022-07-26T09:31:39.932Z,0.52
2022-07-26T09:34:08.119Z,2.33
2022-07-26T09:36:53.314Z,2.30
2022-07-26T09:39:22.795Z,3.10
2022-07-26T09:42:26.700Z,2.67
2022-07-26T09:44:54.747Z,3.20
2022-07-26T09:47:21.169Z,3.33
2022-07-26T09:49:47.929Z,3.90
2022-07-26T09:52:21.595Z,2.33
2022-07-26T09:54:49.455Z,2.70
2022-07-26T09:57:17.989Z,4.30
2022-07-26T09:59:45.531Z,3.28
2022-07-26T10:02:14.052Z,3.17
2022-07-26T10:04:46.434Z,3.55
2022-07-26T10:07:12.876Z,2.35
2022-07-26T10:10:00.266Z,2.25
2022-07-26T10:12:31.123Z,3.30
2022-07-26T10:14:57.638Z,2.05
2022-07-26T10:17:29.094Z,2.83
2022-07-26T10:20:01.675Z,4.10
2022-07-26T10:22:34.092Z,2.60
2022-07-26T10:25:18.528Z,3.03
2022-07-26T10:27:46.311Z,2.33
2022-07-26T10:30:22.619Z,6.00
2022-07-26T10:32:52.284Z,2.63
2022-07-26T10:35:36.178Z,2.15
2022-07-26T10:38:05.464Z,6.15
2022-07-26T10:40:32.288Z,6.03
2022-07-26T10:46:15.815Z,2.50
2022-07-26T10:49:06.194Z,2.78
2022-07-26T10:51:40.351Z,1.48
2022-07-26T10:54:09.386Z,6.32
2022-07-26T10:56:36.400Z,3.25
2022-07-26T10:59:04.647Z,2.17
2022-07-26T11:01:42.853Z,3.63
2022-07-26T11:04:19.796Z,4.90
2022-07-26T11:06:46.469Z,4.38
2022-07-26T11:09:13.261Z,2.80
2022-07-26T11:11:46.857Z,3.22
2022-07-26T11:14:16.396Z,1.90
2022-07-26T11:16:48.498Z,6.13
2022-07-26T11:19:17.657Z,5.05
2022-07-26T11:21:45.762Z,3.08
2022-07-26T11:26:46.713Z,3.97
2022-07-26T11:29:17.024Z,5.75
2022-07-26T11:31:50.954Z,4.57
2022-07-26T11:34:29.813Z,2.60
2022-07-26T11:36:58.719Z,3.05
2022-07-26T11:39:27.818Z,3.53
2022-07-26T11:42:04.743Z,3.90
2022-07-26T11:44:32.582Z,4.80
2022-07-26T11:46:59.210Z,2.65
2022-07-26T11:50:00.914Z,4.13
2022-07-26T11:52:15.829Z,3.42
2022-07-26T11:54:52.912Z,2.50
2022-07-26T11:57:19.654Z,3.45
2022-07-26T11:59:48.145Z,5.88
2022-07-26T12:02:15.322Z,4.07
2022-07-26T12:04:43.422Z,2.07
2022-07-26T12:07:10.859Z,5.30
2022-07-26T12:09:48.506Z,3.13
2022-07-26T12:12:31.659Z,9.15
2022-07-26T12:15:07.020Z,3.15
2022-07-26T12:17:35.255Z,5.20
2022-07-26T12:20:17.634Z,3.55
2022-07-26T12:23:00.667Z,6.70
2022-07-26T12:25:28.186Z,2.60
2022-07-26T12:27:54.606Z,2.00
2022-07-26T12:30:21.653Z,2.10
2022-07-26T12:32:51.429Z,2.83
2022-07-26T12:35:29.186Z,3.33
2022-07-26T12:37:55.664Z,3.67
2022-07-26T12:40:29.141Z,4.03
2022-07-26T12:43:01.014Z,3.38
2022-07-26T12:45:31.471Z,1.58
2022-07-26T12:47:59.867Z,2.85
2022-07-26T12:50:28.562Z,4.40
2022-07-26T12:53:09.043Z,3.72
2022-07-26T12:55:39.052Z,2.75
2022-07-26T12:58:05.569Z,3.40
2022-07-26T13:00:32.119Z,6.10
2022-07-26T13:02:58.544Z,4.50
2022-07-26T13:05:25.366Z,4.20
2022-07-26T13:07:52.260Z,1.75
2022-07-26T13:10:35.715Z,3.67
2022-07-26T13:13:03.526Z,2.47
2022-07-26T13:15:35.934Z,3.83
2022-07-26T13:18:03.183Z,4.03
2022-07-26T13:20:30.581Z,2.90
2022-07-26T13:22:56.945Z,4.03
2022-07-26T13:25:23.304Z,5.38
2022-07-26T13:30:17.940Z,6.38
2022-07-26T13:32:44.310Z,10.13
2022-07-26T13:35:10.762Z,4.47
2022-07-26T13:37:38.127Z,4.63
2022-07-26T13:40:05.608Z,3.13
2022-07-26T13:42:32.023Z,2.80
2022-07-26T13:44:58.462Z,5.07
2022-07-26T13:47:24.826Z,5.90
2022-07-26T13:49:51.217Z,4.60
2022-07-26T13:52:17.660Z,5.47
2022-07-26T13:54:44.077Z,5.10
2022-07-26T13:57:10.557Z,7.63
2022-07-26T13:59:36.977Z,4.97
2022-07-26T14:02:04.942Z,6.97
2022-07-26T14:04:31.927Z,6.35
2022-07-26T14:06:58.357Z,5.80
2022-07-26T14:09:24.762Z,5.65
2022-07-26T14:11:51.264Z,4.57
2022-07-26T14:14:17.750Z,5.40
2022-07-26T14:16:48.141Z,6.22
2022-07-26T14:19:16.435Z,5.93
2022-07-26T14:21:59.684Z,6.28
2022-07-26T14:24:26.802Z,8.15
2022-07-26T14:26:56.868Z,10.38
2022-07-26T14:29:25.858Z,7.32
2022-07-26T14:31:52.509Z,5.65
2022-07-26T14:34:18.984Z,6.88
2022-07-26T14:36:45.428Z,8.52
2022-07-26T14:39:12.052Z,8.82
2022-07-26T14:41:38.478Z,6.22
2022-07-26T14:44:05.164Z,6.22
2022-07-26T14:46:31.665Z,5.10
2022-07-26T14:48:58.135Z,4.05
2022-07-26T14:51:24.562Z,5.53
2022-07-26T14:53:51.059Z,6.45
2022-07-26T14:56:17.541Z,4.93
2022-07-26T14:58:43.956Z,8.23
2022-07-26T15:01:10.803Z,4.72
2022-07-26T15:03:37.221Z,7.68
2022-07-26T15:06:03.718Z,7.43
2022-07-26T15:08:30.184Z,6.95
2022-07-26T15:10:56.671Z,7.88
2022-07-26T15:13:23.955Z,6.70
2022-07-26T15:18:33.912Z,4.93
2022-07-26T15:21:00.739Z,8.93
2022-07-26T15:23:27.110Z,5.57
2022-07-26T15:25:53.571Z,4.82
2022-07-26T15:28:20.041Z,6.32
2022-07-26T15:30:46.456Z,8.95
2022-07-26T15:33:14.388Z,5.95
2022-07-26T15:38:07.747Z,5.60
2022-07-26T15:40:34.619Z,6.80
2022-07-26T15:43:01.260Z,5.78
2022-07-26T15:45:28.046Z,5.22
2022-07-26T15:48:11.007Z,4.38
2022-07-26T15:50:42.208Z,4.82
2022-07-26T15:53:08.652Z,5.05
2022-07-26T15:55:35.124Z,6.18
2022-07-26T15:58:01.861Z,3.80
2022-07-26T16:00:28.292Z,3.58
2022-07-26T16:02:54.727Z,3.88
2022-07-26T16:05:21.435Z,6.05
2022-07-26T16:07:47.911Z,2.95
2022-07-26T16:10:16.229Z,5.00
2022-07-26T16:12:43.367Z,3.85
2022-07-26T16:15:10.683Z,4.50
2022-07-26T16:17:37.674Z,5.57
2022-07-26T16:20:05.276Z,6.18
2022-07-26T16:22:32.537Z,4.95
2022-07-26T16:24:59.142Z,4.13
2022-07-26T16:27:25.607Z,7.35
2022-07-26T16:29:52.600Z,6.75
2022-07-26T16:32:21.044Z,4.93
2022-07-26T16:34:47.580Z,3.25
2022-07-26T16:37:14.147Z,5.20
2022-07-26T16:39:40.546Z,3.90
2022-07-26T16:42:07.524Z,4.45
2022-07-26T16:44:35.899Z,5.23
2022-07-26T16:47:02.489Z,5.18
2022-07-26T16:49:29.290Z,6.15
2022-07-26T16:51:56.859Z,4.72
2022-07-26T16:54:23.217Z,3.65
2022-07-26T16:56:49.845Z,3.25
2022-07-26T16:59:16.840Z,3.28
2022-07-26T17:01:43.674Z,4.03
2022-07-26T17:04:10.372Z,7.38
2022-07-26T17:06:36.832Z,5.90
2022-07-26T17:09:03.502Z,5.60
2022-07-26T17:11:29.954Z,4.90
2022-07-26T17:13:56.360Z,5.53
2022-07-26T17:16:25.072Z,8.65
2022-07-26T17:18:53.031Z,5.73
2022-07-26T17:21:19.562Z,6.43
2022-07-26T17:23:45.929Z,6.47
2022-07-26T17:26:12.455Z,5.40
2022-07-26T17:28:38.848Z,4.10
2022-07-26T17:31:05.267Z,5.97
2022-07-26T17:33:31.792Z,5.25
2022-07-26T17:36:02.105Z,3.60
2022-07-26T17:38:31.077Z,3.65
2022-07-26T17:40:57.501Z,3.28
2022-07-26T17:43:25.139Z,3.97
2022-07-26T17:46:03.854Z,5.03
2022-07-26T17:48:30.411Z,2.78
2022-07-26T17:50:56.800Z,6.28
2022-07-26T17:53:34.234Z,3.80
2022-07-26T17:56:01.828Z,7.57
2022-07-26T17:58:28.359Z,4.68
2022-07-26T18:00:54.720Z,4.07
2022-07-26T18:03:22.053Z,4.10
2022-07-26T18:05:49.109Z,4.88
2022-07-26T18:08:15.675Z,5.35
2022-07-26T18:10:43.696Z,3.47
2022-07-26T18:13:12.801Z,3.85
2022-07-26T18:15:39.565Z,6.55
2022-07-26T18:18:07.624Z,3.42
2022-07-26T18:20:34.113Z,5.55
2022-07-26T18:23:00.548Z,2.72
2022-07-26T18:25:26.899Z,3.40
2022-07-26T18:27:53.819Z,3.05
2022-07-26T18:30:20.297Z,4.00
2022-07-26T18:32:46.713Z,7.30
2022-07-26T18:35:13.371Z,5.55
2022-07-26T18:37:39.805Z,3.60
2022-07-26T18:40:07.167Z,5.65
2022-07-26T18:42:33.638Z,4.45
2022-07-26T18:45:00.091Z,2.88
2022-07-26T18:47:26.622Z,6.78
2022-07-26T18:49:53.154Z,3.13
2022-07-26T18:52:28.689Z,4.38
2022-07-26T18:54:59.734Z,4.20
2022-07-26T18:57:26.166Z,3.67
2022-07-26T18:59:52.580Z,4.95
2022-07-26T19:02:19.055Z,4.55
2022-07-26T19:04:45.498Z,4.80
2022-07-26T19:07:11.899Z,3.45
2022-07-26T19:09:38.358Z,3.08
2022-07-26T19:12:04.873Z,5.53
2022-07-26T19:14:31.612Z,6.10
2022-07-26T19:16:58.276Z,8.95
2022-07-26T19:19:24.690Z,4.43
2022-07-26T19:21:51.055Z,4.43
2022-07-26T19:24:17.485Z,5.00
2022-07-26T19:26:44.006Z,4.60
2022-07-26T19:29:10.628Z,6.30
2022-07-26T19:31:40.172Z,2.72
2022-07-26T19:34:06.573Z,3.60
2022-07-26T19:36:32.993Z,4.40
2022-07-26T19:39:01.236Z,3.53
2022-07-26T19:43:54.126Z,6.15
2022-07-26T19:46:20.602Z,6.63
2022-07-26T19:48:47.087Z,2.90
2022-07-26T19:51:13.692Z,5.03
2022-07-26T19:53:40.536Z,5.22
2022-07-26T19:56:07.819Z,3.25
2022-07-26T19:58:34.743Z,5.70
2022-07-26T20:01:01.607Z,5.38
2022-07-26T20:03:28.003Z,5.50
2022-07-26T20:05:56.654Z,2.83
2022-07-26T20:08:23.101Z,2.95
2022-07-26T20:10:50.059Z,3.05
2022-07-26T20:13:17.001Z,2.28
2022-07-26T20:15:43.662Z,3.25
2022-07-26T20:18:10.489Z,3.35
2022-07-26T20:20:36.995Z,7.30
2022-07-26T20:23:06.229Z,3.13
2022-07-26T20:25:33.395Z,2.80
2022-07-26T20:28:00.337Z,4.10
2022-07-26T20:30:26.722Z,2.90
2022-07-26T20:32:53.119Z,4.78
2022-07-26T20:35:19.624Z,3.72
2022-07-26T20:37:46.100Z,3.58
2022-07-26T20:40:13.162Z,2.63
2022-07-26T20:42:44.200Z,2.45
2022-07-26T20:45:12.774Z,4.43
2022-07-26T20:47:42.994Z,3.47
2022-07-26T20:50:11.268Z,2.78
2022-07-26T20:52:37.998Z,3.33
2022-07-26T20:55:05.123Z,4.63
2022-07-26T20:57:31.484Z,3.28
2022-07-26T20:59:57.894Z,4.85
2022-07-26T21:02:24.556Z,2.78
2022-07-26T21:04:51.190Z,4.13
2022-07-26T21:07:18.739Z,2.50
2022-07-26T21:09:45.122Z,3.23
2022-07-26T21:12:11.510Z,4.10
2022-07-26T21:14:37.934Z,6.35
2022-07-26T21:17:09.311Z,4.57
2022-07-26T21:19:37.987Z,5.60
2022-07-26T21:22:04.407Z,1.55
2022-07-26T21:24:30.858Z,5.03
2022-07-26T21:26:57.284Z,5.85
2022-07-26T21:29:23.662Z,4.57
2022-07-26T21:31:50.038Z,2.72
2022-07-26T21:34:16.667Z,4.70
2022-07-26T21:36:43.239Z,4.43
2022-07-26T21:39:10.185Z,5.60
2022-07-26T21:41:36.940Z,2.58
2022-07-26T21:44:04.544Z,3.33
2022-07-26T21:46:31.273Z,5.13
2022-07-26T21:48:57.853Z,5.25
2022-07-26T21:51:24.330Z,2.47
2022-07-26T21:53:50.702Z,3.08
2022-07-26T21:56:17.427Z,2.55
2022-07-26T21:58:43.777Z,3.13
2022-07-26T22:01:12.404Z,3.67
2022-07-26T22:03:40.576Z,2.20
2022-07-26T22:06:08.323Z,2.58
2022-07-26T22:08:35.239Z,3.95
2022-07-26T22:11:01.991Z,3.20
2022-07-26T22:13:28.448Z,3.63
2022-07-26T22:15:54.835Z,4.00
2022-07-26T22:18:21.288Z,7.13
2022-07-26T22:20:49.626Z,2.22
2022-07-26T22:23:17.740Z,6.57
2022-07-26T22:25:44.636Z,3.88
2022-07-26T22:28:18.102Z,5.10
2022-07-26T22:30:45.835Z,5.65
2022-07-26T22:33:12.281Z,4.18
2022-07-26T22:35:38.795Z,6.78
2022-07-26T22:38:09.054Z,4.68
2022-07-26T22:40:36.851Z,2.35
2022-07-26T22:43:03.669Z,4.32
2022-07-26T22:45:30.558Z,2.05
2022-07-26T22:47:57.946Z,3.85
2022-07-26T22:50:24.698Z,2.35
2022-07-26T22:52:51.446Z,5.00
2022-07-26T22:55:17.829Z,4.88
2022-07-26T22:57:44.898Z,4.90
2022-07-26T23:00:13.467Z,6.03
2022-07-26T23:02:40.114Z,4.07
2022-07-26T23:05:07.335Z,6.65
2022-07-26T23:07:35.608Z,5.90
2022-07-26T23:10:02.505Z,3.20
2022-07-26T23:12:28.905Z,6.93
2022-07-26T23:14:55.358Z,5.75
2022-07-26T23:17:21.790Z,4.72
2022-07-26T23:19:48.206Z,4.57
2022-07-26T23:22:14.759Z,6.25
2022-07-26T23:24:41.274Z,4.07
2022-07-26T23:27:09.970Z,1.92
2022-07-26T23:29:36.349Z,3.15
2022-07-26T23:32:02.797Z,2.22
2022-07-26T23:34:29.197Z,5.93
2022-07-26T23:36:55.566Z,4.65
2022-07-26T23:39:22.444Z,4.03
2022-07-26T23:41:48.816Z,3.22
2022-07-26T23:44:15.277Z,2.78
2022-07-26T23:46:41.765Z,7.43
2022-07-26T23:49:08.451Z,5.18
2022-07-26T23:51:35.242Z,7.50
2022-07-26T23:54:01.648Z,5.65
2022-07-26T23:56:28.266Z,4.45
2022-07-26T23:58:54.777Z,3.65
